sensor_id;sensor_type;location;lat;lon;timestamp;pressure;altitude;pressure_sealevel;temperature;humidity
10135;BME280;5107;48.850;8.924;2023-01-25T00:00:27;98364.81;;;1.19;100.00
10135;BME280;5107;48.850;8.924;2023-01-25T00:02:56;98356.19;;;1.19;100.00
10135;BME280;5107;48.850;8.924;2023-01-25T00:05:23;98358.59;;;1.23;100.00
10135;BME280;5107;48.850;8.924;2023-01-25T00:07:50;98362.03;;;1.24;100.00
10135;BME280;5107;48.850;8.924;2023-01-25T00:10:18;98359.28;;;1.27;100.00
10135;BME280;5107;48.850;8.924;2023-01-25T00:12:46;98360.97;;;1.28;100.00
10135;BME280;5107;48.850;8.924;2023-01-25T00:15:16;98357.59;;;1.26;100.00
10135;BME280;5107;48.850;8.924;2023-01-25T00:18:02;98361.19;;;1.23;100.00
10135;BME280;5107;48.850;8.924;2023-01-25T00:20:29;98359.56;;;1.21;100.00
10135;BME280;5107;48.850;8.924;2023-01-25T00:22:56;98351.78;;;1.21;100.00
10135;BME280;5107;48.850;8.924;2023-01-25T00:25:23;98350.88;;;1.22;100.00
10135;BME280;5107;48.850;8.924;2023-01-25T00:27:50;98346.47;;;1.24;100.00
10135;BME280;5107;48.850;8.924;2023-01-25T00:30:18;98343.19;;;1.20;100.00
10135;BME280;5107;48.850;8.924;2023-01-25T00:32:53;98341.44;;;1.21;100.00
10135;BME280;5107;48.850;8.924;2023-01-25T00:35:30;98337.88;;;1.23;100.00
10135;BME280;5107;48.850;8.924;2023-01-25T00:38:01;98340.22;;;1.28;100.00
10135;BME280;5107;48.850;8.924;2023-01-25T00:40:28;98340.94;;;1.31;100.00
10135;BME280;5107;48.850;8.924;2023-01-25T00:42:55;98341.41;;;1.39;100.00
10135;BME280;5107;48.850;8.924;2023-01-25T00:45:23;98337.56;;;1.29;100.00
10135;BME280;5107;48.850;8.924;2023-01-25T00:47:53;98332.31;;;1.31;100.00
10135;BME280;5107;48.850;8.924;2023-01-25T00:50:21;98338.41;;;1.30;100.00
10135;BME280;5107;48.850;8.924;2023-01-25T00:52:49;98330.69;;;1.28;100.00
10135;BME280;5107;48.850;8.924;2023-01-25T00:55:16;98332.03;;;1.37;100.00
10135;BME280;5107;48.850;8.924;2023-01-25T00:57:43;98339.19;;;1.32;100.00
10135;BME280;5107;48.850;8.924;2023-01-25T01:00:12;98334.97;;;1.29;100.00
10135;BME280;5107;48.850;8.924;2023-01-25T01:02:39;98336.84;;;1.26;100.00
10135;BME280;5107;48.850;8.924;2023-01-25T01:05:07;98331.69;;;1.26;100.00
10135;BME280;5107;48.850;8.924;2023-01-25T01:07:34;98334.19;;;1.27;100.00
10135;BME280;5107;48.850;8.924;2023-01-25T01:10:04;98322.84;;;1.30;100.00
10135;BME280;5107;48.850;8.924;2023-01-25T01:12:31;98318.72;;;1.26;100.00
10135;BME280;5107;48.850;8.924;2023-01-25T01:14:58;98318.03;;;1.22;100.00
10135;BME280;5107;48.850;8.924;2023-01-25T01:17:25;98318.81;;;1.24;100.00
10135;BME280;5107;48.850;8.924;2023-01-25T01:19:52;98324.50;;;1.13;100.00
10135;BME280;5107;48.850;8.924;2023-01-25T01:22:19;98319.16;;;1.17;100.00
10135;BME280;5107;48.850;8.924;2023-01-25T01:24:47;98322.59;;;1.17;100.00
10135;BME280;5107;48.850;8.924;2023-01-25T01:27:16;98322.44;;;1.20;100.00
10135;BME280;5107;48.850;8.924;2023-01-25T01:29:43;98320.91;;;1.16;100.00
10135;BME280;5107;48.850;8.924;2023-01-25T01:32:10;98325.19;;;1.17;100.00
10135;BME280;5107;48.850;8.924;2023-01-25T01:34:37;98310.31;;;1.21;100.00
10135;BME280;5107;48.850;8.924;2023-01-25T01:37:04;98317.81;;;1.27;100.00
10135;BME280;5107;48.850;8.924;2023-01-25T01:39:31;98310.88;;;1.27;100.00
10135;BME280;5107;48.850;8.924;2023-01-25T01:41:58;98312.63;;;1.27;100.00
10135;BME280;5107;48.850;8.924;2023-01-25T01:44:44;98316.84;;;1.29;100.00
10135;BME280;5107;48.850;8.924;2023-01-25T01:47:18;98318.59;;;1.29;100.00
10135;BME280;5107;48.850;8.924;2023-01-25T01:49:54;98313.19;;;1.33;100.00
10135;BME280;5107;48.850;8.924;2023-01-25T01:52:29;98321.66;;;1.37;100.00
10135;BME280;5107;48.850;8.924;2023-01-25T01:55:00;98311.56;;;1.31;99.90
10135;BME280;5107;48.850;8.924;2023-01-25T01:57:33;98313.88;;;1.37;99.67
10135;BME280;5107;48.850;8.924;2023-01-25T02:00:07;98316.91;;;1.28;99.62
10135;BME280;5107;48.850;8.924;2023-01-25T02:03:35;98331.41;;;1.32;99.65
10135;BME280;5107;48.850;8.924;2023-01-25T02:06:09;98320.19;;;1.31;99.81
10135;BME280;5107;48.850;8.924;2023-01-25T02:08:38;98316.13;;;1.26;99.24
10135;BME280;5107;48.850;8.924;2023-01-25T02:11:08;98308.34;;;1.26;99.51
10135;BME280;5107;48.850;8.924;2023-01-25T02:13:37;98316.75;;;1.31;99.62
10135;BME280;5107;48.850;8.924;2023-01-25T02:16:14;98310.66;;;1.32;99.55
10135;BME280;5107;48.850;8.924;2023-01-25T02:18:42;98306.16;;;1.35;99.40
10135;BME280;5107;48.850;8.924;2023-01-25T02:21:09;98307.00;;;1.36;99.54
10135;BME280;5107;48.850;8.924;2023-01-25T02:23:44;98299.59;;;1.28;99.10
10135;BME280;5107;48.850;8.924;2023-01-25T02:26:16;98301.41;;;1.26;99.49
10135;BME280;5107;48.850;8.924;2023-01-25T02:28:49;98307.44;;;1.27;99.43
10135;BME280;5107;48.850;8.924;2023-01-25T02:31:16;98300.44;;;1.29;99.19
10135;BME280;5107;48.850;8.924;2023-01-25T02:33:43;98304.94;;;1.25;99.25
10135;BME280;5107;48.850;8.924;2023-01-25T02:36:20;98299.75;;;1.25;99.49
10135;BME280;5107;48.850;8.924;2023-01-25T02:38:53;98294.56;;;1.25;99.47
10135;BME280;5107;48.850;8.924;2023-01-25T02:41:26;98298.28;;;1.20;99.49
10135;BME280;5107;48.850;8.924;2023-01-25T02:43:56;98293.03;;;1.21;100.00
10135;BME280;5107;48.850;8.924;2023-01-25T02:46:25;98290.31;;;1.24;99.49
10135;BME280;5107;48.850;8.924;2023-01-25T02:48:54;98288.22;;;1.13;99.41
10135;BME280;5107;48.850;8.924;2023-01-25T02:51:22;98279.53;;;1.14;99.60
10135;BME280;5107;48.850;8.924;2023-01-25T02:53:50;98285.56;;;1.15;100.00
10135;BME280;5107;48.850;8.924;2023-01-25T02:56:17;98281.22;;;1.16;100.00
10135;BME280;5107;48.850;8.924;2023-01-25T02:58:48;98278.75;;;1.12;100.00
10135;BME280;5107;48.850;8.924;2023-01-25T03:01:17;98281.34;;;1.12;100.00
10135;BME280;5107;48.850;8.924;2023-01-25T03:03:44;98275.13;;;1.17;100.00
10135;BME280;5107;48.850;8.924;2023-01-25T03:06:12;98272.84;;;1.09;100.00
10135;BME280;5107;48.850;8.924;2023-01-25T03:08:42;98266.94;;;1.07;100.00
10135;BME280;5107;48.850;8.924;2023-01-25T03:11:09;98263.50;;;1.06;100.00
10135;BME280;5107;48.850;8.924;2023-01-25T03:13:37;98263.50;;;1.06;100.00
10135;BME280;5107;48.850;8.924;2023-01-25T03:16:08;98257.59;;;1.03;100.00
10135;BME280;5107;48.850;8.924;2023-01-25T03:18:39;98257.53;;;1.04;100.00
10135;BME280;5107;48.850;8.924;2023-01-25T03:21:09;98260.19;;;1.03;100.00
10135;BME280;5107;48.850;8.924;2023-01-25T03:23:38;98254.03;;;1.05;100.00
10135;BME280;5107;48.850;8.924;2023-01-25T03:26:09;98251.75;;;0.99;100.00
10135;BME280;5107;48.850;8.924;2023-01-25T03:28:44;98251.75;;;0.99;100.00
10135;BME280;5107;48.850;8.924;2023-01-25T03:31:15;98254.34;;;0.99;100.00
10135;BME280;5107;48.850;8.924;2023-01-25T03:33:43;98258.75;;;0.97;100.00
10135;BME280;5107;48.850;8.924;2023-01-25T03:36:11;98257.84;;;0.98;100.00
10135;BME280;5107;48.850;8.924;2023-01-25T03:38:38;98251.53;;;1.04;100.00
10135;BME280;5107;48.850;8.924;2023-01-25T03:41:07;98250.63;;;1.05;100.00
10135;BME280;5107;48.850;8.924;2023-01-25T03:43:37;98267.00;;;1.05;100.00
10135;BME280;5107;48.850;8.924;2023-01-25T03:46:04;98263.50;;;1.06;100.00
10135;BME280;5107;48.850;8.924;2023-01-25T03:48:34;98254.03;;;1.05;100.00
10135;BME280;5107;48.850;8.924;2023-01-25T03:51:01;98259.91;;;1.09;100.00
10135;BME280;5107;48.850;8.924;2023-01-25T03:53:29;98252.22;;;1.07;100.00
10135;BME280;5107;48.850;8.924;2023-01-25T03:56:07;98249.06;;;1.01;100.00
10135;BME280;5107;48.850;8.924;2023-01-25T03:58:37;98255.94;;;1.02;100.00
10135;BME280;5107;48.850;8.924;2023-01-25T04:01:06;98250.91;;;0.99;100.00
10135;BME280;5107;48.850;8.924;2023-01-25T04:03:35;98249.06;;;1.01;100.00
10135;BME280;5107;48.850;8.924;2023-01-25T04:06:03;98248.53;;;0.94;100.00
10135;BME280;5107;48.850;8.924;2023-01-25T04:08:31;98240.81;;;0.93;100.00
10135;BME280;5107;48.850;8.924;2023-01-25T04:11:02;98253.09;;;0.89;100.00
10135;BME280;5107;48.850;8.924;2023-01-25T04:13:30;98252.91;;;0.92;100.00
10135;BME280;5107;48.850;8.924;2023-01-25T04:16:00;98254.69;;;0.92;100.00
10135;BME280;5107;48.850;8.924;2023-01-25T04:18:52;98248.81;;;0.88;100.00
10135;BME280;5107;48.850;8.924;2023-01-25T04:21:19;98254.00;;;0.88;100.00
10135;BME280;5107;48.850;8.924;2023-01-25T04:23:47;98249.66;;;0.89;100.00
10135;BME280;5107;48.850;8.924;2023-01-25T04:26:14;98235.88;;;0.88;100.00
10135;BME280;5107;48.850;8.924;2023-01-25T04:28:46;98237.47;;;0.91;100.00
10135;BME280;5107;48.850;8.924;2023-01-25T04:31:14;98234.66;;;0.95;100.00
10135;BME280;5107;48.850;8.924;2023-01-25T04:33:41;98229.34;;;0.98;100.00
10135;BME280;5107;48.850;8.924;2023-01-25T04:36:09;98235.28;;;1.00;100.00
10135;BME280;5107;48.850;8.924;2023-01-25T04:38:37;98229.47;;;0.95;100.00
10135;BME280;5107;48.850;8.924;2023-01-25T04:41:04;98231.22;;;0.95;100.00
10135;BME280;5107;48.850;8.924;2023-01-25T04:43:32;98238.22;;;0.93;100.00
10135;BME280;5107;48.850;8.924;2023-01-25T04:46:04;98230.38;;;0.94;100.00
10135;BME280;5107;48.850;8.924;2023-01-25T04:48:32;98240.91;;;0.91;100.00
10135;BME280;5107;48.850;8.924;2023-01-25T04:51:03;98238.22;;;0.93;100.00
10135;BME280;5107;48.850;8.924;2023-01-25T04:53:32;98232.13;;;0.94;100.00
10135;BME280;5107;48.850;8.924;2023-01-25T04:56:01;98231.16;;;0.96;100.00
10135;BME280;5107;48.850;8.924;2023-01-25T04:58:32;98230.25;;;0.97;100.00
10135;BME280;5107;48.850;8.924;2023-01-25T05:01:01;98230.31;;;0.96;100.00
10135;BME280;5107;48.850;8.924;2023-01-25T05:03:28;98235.44;;;0.97;100.00
10135;BME280;5107;48.850;8.924;2023-01-25T05:05:57;98225.97;;;0.96;100.00
10135;BME280;5107;48.850;8.924;2023-01-25T05:08:25;98226.88;;;0.95;100.00
10135;BME280;5107;48.850;8.924;2023-01-25T05:10:56;98229.47;;;0.95;100.00
10135;BME280;5107;48.850;8.924;2023-01-25T05:13:46;98227.66;;;0.97;100.00
10135;BME280;5107;48.850;8.924;2023-01-25T05:16:23;98226.69;;;1.00;100.00
10135;BME280;5107;48.850;8.924;2023-01-25T05:18:50;98229.19;;;1.01;100.00
10135;BME280;5107;48.850;8.924;2023-01-25T05:21:22;98225.13;;;0.96;100.00
10135;BME280;5107;48.850;8.924;2023-01-25T05:24:08;98221.69;;;0.95;100.00
10135;BME280;5107;48.850;8.924;2023-01-25T05:26:38;98223.38;;;0.96;100.00
10135;BME280;5107;48.850;8.924;2023-01-25T05:29:22;98226.50;;;1.03;100.00
10135;BME280;5107;48.850;8.924;2023-01-25T05:31:58;98227.44;;;1.02;100.00
10135;BME280;5107;48.850;8.924;2023-01-25T05:34:26;98227.66;;;0.97;100.00
10135;BME280;5107;48.850;8.924;2023-01-25T05:36:53;98231.03;;;0.99;100.00
10135;BME280;5107;48.850;8.924;2023-01-25T05:39:20;98227.53;;;1.00;100.00
10135;BME280;5107;48.850;8.924;2023-01-25T05:41:51;98229.88;;;1.05;100.00
10135;BME280;5107;48.850;8.924;2023-01-25T05:44:18;98227.34;;;1.03;100.00
10135;BME280;5107;48.850;8.924;2023-01-25T05:46:49;98219.75;;;1.00;100.00
10135;BME280;5107;48.850;8.924;2023-01-25T05:49:17;98218.81;;;1.01;100.00
10135;BME280;5107;48.850;8.924;2023-01-25T05:51:45;98218.97;;;0.98;100.00
10135;BME280;5107;48.850;8.924;2023-01-25T05:54:15;98226.28;;;0.90;100.00
10135;BME280;5107;48.850;8.924;2023-01-25T05:56:51;98226.41;;;0.87;100.00
10135;BME280;5107;48.850;8.924;2023-01-25T05:59:18;98217.72;;;0.88;100.00
10135;BME280;5107;48.850;8.924;2023-01-25T06:01:48;98212.25;;;0.94;100.00
10135;BME280;5107;48.850;8.924;2023-01-25T06:04:17;98207.00;;;0.96;100.00
10135;BME280;5107;48.850;8.924;2023-01-25T06:06:44;98203.63;;;0.94;100.00
10135;BME280;5107;48.850;8.924;2023-01-25T06:09:12;98204.47;;;0.94;100.00
10135;BME280;5107;48.850;8.924;2023-01-25T06:11:43;98192.44;;;0.93;100.00
10135;BME280;5107;48.850;8.924;2023-01-25T06:14:12;98193.22;;;0.95;100.00
10135;BME280;5107;48.850;8.924;2023-01-25T06:16:40;98196.88;;;0.91;100.00
10135;BME280;5107;48.850;8.924;2023-01-25T06:19:26;98200.44;;;0.89;100.00
10135;BME280;5107;48.850;8.924;2023-01-25T06:22:26;98193.50;;;0.89;100.00
10135;BME280;5107;48.850;8.924;2023-01-25T06:24:53;98198.53;;;0.92;100.00
10135;BME280;5107;48.850;8.924;2023-01-25T06:27:20;98196.78;;;0.93;100.00
10135;BME280;5107;48.850;8.924;2023-01-25T06:29:48;98199.75;;;1.02;100.00
10135;BME280;5107;48.850;8.924;2023-01-25T06:32:15;98199.09;;;0.99;100.00
10135;BME280;5107;48.850;8.924;2023-01-25T06:34:42;98196.50;;;0.99;100.00
10135;BME280;5107;48.850;8.924;2023-01-25T06:37:17;98193.13;;;0.97;100.00
10135;BME280;5107;48.850;8.924;2023-01-25T06:39:44;98189.72;;;0.96;100.00
10135;BME280;5107;48.850;8.924;2023-01-25T06:42:11;98191.69;;;0.91;100.00
10135;BME280;5107;48.850;8.924;2023-01-25T06:44:38;98187.97;;;0.97;100.00
10135;BME280;5107;48.850;8.924;2023-01-25T06:47:09;98185.44;;;0.95;100.00
10135;BME280;5107;48.850;8.924;2023-01-25T06:49:37;98187.03;;;0.98;100.00
10135;BME280;5107;48.850;8.924;2023-01-25T06:52:04;98182.06;;;0.93;100.00
10135;BME280;5107;48.850;8.924;2023-01-25T06:54:31;98185.09;;;0.84;100.00
10135;BME280;5107;48.850;8.924;2023-01-25T06:56:58;98183.28;;;0.86;100.00
10135;BME280;5107;48.850;8.924;2023-01-25T06:59:25;98187.78;;;0.83;100.00
10135;BME280;5107;48.850;8.924;2023-01-25T07:01:52;98180.00;;;0.83;100.00
10135;BME280;5107;48.850;8.924;2023-01-25T07:04:20;98175.94;;;0.77;100.00
10135;BME280;5107;48.850;8.924;2023-01-25T07:06:47;98178.41;;;0.80;100.00
10135;BME280;5107;48.850;8.924;2023-01-25T07:09:14;98178.28;;;0.83;100.00
10135;BME280;5107;48.850;8.924;2023-01-25T07:11:42;98180.09;;;0.81;100.00
10135;BME280;5107;48.850;8.924;2023-01-25T07:14:09;98176.53;;;0.84;100.00
10135;BME280;5107;48.850;8.924;2023-01-25T07:16:36;98182.22;;;0.90;100.00
10135;BME280;5107;48.850;8.924;2023-01-25T07:19:04;98179.00;;;0.85;100.00
10135;BME280;5107;48.850;8.924;2023-01-25T07:21:33;98177.31;;;0.84;100.00
10135;BME280;5107;48.850;8.924;2023-01-25T07:24:02;98177.97;;;0.89;100.00
10135;BME280;5107;48.850;8.924;2023-01-25T07:26:30;98172.00;;;0.87;100.00
10135;BME280;5107;48.850;8.924;2023-01-25T07:28:58;98177.06;;;0.90;100.00
10135;BME280;5107;48.850;8.924;2023-01-25T07:31:26;98172.91;;;0.86;100.00
10135;BME280;5107;48.850;8.924;2023-01-25T07:33:56;98171.88;;;0.90;100.00
10135;BME280;5107;48.850;8.924;2023-01-25T07:36:24;98163.69;;;1.17;100.00
10135;BME280;5107;48.850;8.924;2023-01-25T07:38:54;98154.22;;;1.33;100.00
10135;BME280;5107;48.850;8.924;2023-01-25T07:41:21;98163.44;;;1.56;100.00
10135;BME280;5107;48.850;8.924;2023-01-25T07:43:50;98161.28;;;1.46;100.00
10135;BME280;5107;48.850;8.924;2023-01-25T07:46:38;98162.72;;;1.52;100.00
10135;BME280;5107;48.850;8.924;2023-01-25T07:49:05;98160.44;;;1.63;100.00
10135;BME280;5107;48.850;8.924;2023-01-25T07:51:32;98158.81;;;1.78;100.00
10135;BME280;5107;48.850;8.924;2023-01-25T07:54:03;98163.00;;;1.80;100.00
10135;BME280;5107;48.850;8.924;2023-01-25T07:56:32;98156.94;;;1.64;100.00
10135;BME280;5107;48.850;8.924;2023-01-25T07:59:00;98147.88;;;1.56;99.96
10135;BME280;5107;48.850;8.924;2023-01-25T08:01:29;98160.59;;;1.43;99.48
10135;BME280;5107;48.850;8.924;2023-01-25T08:03:59;98170.81;;;1.29;98.72
10135;BME280;5107;48.850;8.924;2023-01-25T08:06:29;98164.97;;;1.25;98.50
10135;BME280;5107;48.850;8.924;2023-01-25T08:09:05;98169.53;;;1.20;98.31
10135;BME280;5107;48.850;8.924;2023-01-25T08:11:33;98173.28;;;1.14;98.28
10135;BME280;5107;48.850;8.924;2023-01-25T08:14:00;98170.69;;;1.14;98.46
10135;BME280;5107;48.850;8.924;2023-01-25T08:16:29;98168.94;;;1.15;98.60
10135;BME280;5107;48.850;8.924;2023-01-25T08:18:58;98171.59;;;1.13;98.70
10135;BME280;5107;48.850;8.924;2023-01-25T08:21:27;98174.66;;;1.22;98.54
10135;BME280;5107;48.850;8.924;2023-01-25T08:23:57;98173.34;;;1.13;97.98
10135;BME280;5107;48.850;8.924;2023-01-25T08:26:26;98175.63;;;1.19;98.43
10135;BME280;5107;48.850;8.924;2023-01-25T08:28:53;98170.22;;;1.06;98.10
10135;BME280;5107;48.850;8.924;2023-01-25T08:31:24;98165.56;;;1.13;98.29
10135;BME280;5107;48.850;8.924;2023-01-25T08:33:52;98168.09;;;1.14;98.40
10135;BME280;5107;48.850;8.924;2023-01-25T08:36:20;98163.69;;;1.17;98.04
10135;BME280;5107;48.850;8.924;2023-01-25T08:38:53;98168.09;;;1.14;97.94
10135;BME280;5107;48.850;8.924;2023-01-25T08:41:21;98164.72;;;1.12;97.72
10135;BME280;5107;48.850;8.924;2023-01-25T08:43:51;98162.13;;;1.12;97.04
10135;BME280;5107;48.850;8.924;2023-01-25T08:46:21;98156.09;;;1.12;97.65
10135;BME280;5107;48.850;8.924;2023-01-25T08:48:52;98154.50;;;1.09;98.07
10135;BME280;5107;48.850;8.924;2023-01-25T08:51:20;98146.66;;;1.11;97.97
10135;BME280;5107;48.850;8.924;2023-01-25T08:53:47;98149.19;;;1.12;97.98
10135;BME280;5107;48.850;8.924;2023-01-25T08:56:16;98143.16;;;1.12;98.22
10135;BME280;5107;48.850;8.924;2023-01-25T08:58:45;98143.47;;;1.06;97.80
10135;BME280;5107;48.850;8.924;2023-01-25T09:01:16;98132.25;;;1.05;97.92
10135;BME280;5107;48.850;8.924;2023-01-25T09:03:45;98135.69;;;1.06;98.46
10135;BME280;5107;48.850;8.924;2023-01-25T09:06:13;98139.50;;;0.99;98.02
10135;BME280;5107;48.850;8.924;2023-01-25T09:08:41;98138.50;;;1.01;98.49
10135;BME280;5107;48.850;8.924;2023-01-25T09:11:11;98139.91;;;1.08;98.71
10135;BME280;5107;48.850;8.924;2023-01-25T09:13:40;98143.16;;;1.12;98.15
10135;BME280;5107;48.850;8.924;2023-01-25T09:16:10;98138.28;;;1.06;98.84
10135;BME280;5107;48.850;8.924;2023-01-25T09:18:40;98128.31;;;1.16;98.51
10135;BME280;5107;48.850;8.924;2023-01-25T09:21:10;98128.44;;;1.12;98.92
10135;BME280;5107;48.850;8.924;2023-01-25T09:23:38;98137.50;;;1.21;98.03
10135;BME280;5107;48.850;8.924;2023-01-25T09:26:05;98131.03;;;1.12;97.87
10135;BME280;5107;48.850;8.924;2023-01-25T09:28:33;98123.78;;;1.19;97.94
10135;BME280;5107;48.850;8.924;2023-01-25T09:31:02;98127.47;;;1.15;97.71
10135;BME280;5107;48.850;8.924;2023-01-25T09:33:51;98123.06;;;1.17;97.72
10135;BME280;5107;48.850;8.924;2023-01-25T09:36:19;98126.31;;;1.21;97.72
10135;BME280;5107;48.850;8.924;2023-01-25T09:38:46;98127.06;;;1.23;97.36
10135;BME280;5107;48.850;8.924;2023-01-25T09:41:46;98131.34;;;1.24;97.24
10135;BME280;5107;48.850;8.924;2023-01-25T09:44:35;98138.50;;;1.19;96.76
10135;BME280;5107;48.850;8.924;2023-01-25T09:47:15;98140.25;;;1.18;97.14
10135;BME280;5107;48.850;8.924;2023-01-25T09:50:10;98140.34;;;1.17;96.66
10135;BME280;5107;48.850;8.924;2023-01-25T09:53:16;98137.00;;;1.14;96.90
10135;BME280;5107;48.850;8.924;2023-01-25T09:55:49;98138.50;;;1.19;97.03
10135;BME280;5107;48.850;8.924;2023-01-25T09:58:23;98127.28;;;1.18;97.03
10135;BME280;5107;48.850;8.924;2023-01-25T10:01:01;98136.69;;;1.21;97.29
10135;BME280;5107;48.850;8.924;2023-01-25T10:03:38;98128.91;;;1.21;97.66
10135;BME280;5107;48.850;8.924;2023-01-25T10:06:11;98126.53;;;1.33;97.31
10135;BME280;5107;48.850;8.924;2023-01-25T10:08:48;98128.06;;;1.37;97.04
10135;BME280;5107;48.850;8.924;2023-01-25T10:11:22;98122.88;;;1.37;96.56
10135;BME280;5107;48.850;8.924;2023-01-25T10:13:54;98117.16;;;1.31;95.56
10135;BME280;5107;48.850;8.924;2023-01-25T10:16:25;98114.44;;;1.34;95.76
10135;BME280;5107;48.850;8.924;2023-01-25T10:19:04;98114.94;;;1.40;95.77
10135;BME280;5107;48.850;8.924;2023-01-25T10:21:41;98102.28;;;1.34;95.57
10135;BME280;5107;48.850;8.924;2023-01-25T10:24:37;98106.53;;;1.35;95.57
10135;BME280;5107;48.850;8.924;2023-01-25T10:27:19;98105.69;;;1.35;95.11
10135;BME280;5107;48.850;8.924;2023-01-25T10:29:49;98109.06;;;1.37;95.20
10135;BME280;5107;48.850;8.924;2023-01-25T10:32:22;98105.56;;;1.38;94.95
10135;BME280;5107;48.850;8.924;2023-01-25T10:34:52;98097.00;;;1.36;94.84
10135;BME280;5107;48.850;8.924;2023-01-25T10:37:26;98092.28;;;1.44;95.24
10135;BME280;5107;48.850;8.924;2023-01-25T10:40:01;98088.75;;;1.45;95.06
10135;BME280;5107;48.850;8.924;2023-01-25T10:42:38;98080.91;;;1.46;94.83
10135;BME280;5107;48.850;8.924;2023-01-25T10:45:11;98079.84;;;1.50;94.87
10135;BME280;5107;48.850;8.924;2023-01-25T10:47:41;98085.78;;;1.52;94.70
10135;BME280;5107;48.850;8.924;2023-01-25T10:50:47;98081.00;;;1.45;94.24
10135;BME280;5107;48.850;8.924;2023-01-25T10:53:29;98075.66;;;1.48;93.74
10135;BME280;5107;48.850;8.924;2023-01-25T10:56:14;98077.56;;;1.44;92.98
10135;BME280;5107;48.850;8.924;2023-01-25T10:58:46;98080.63;;;1.35;92.55
10135;BME280;5107;48.850;8.924;2023-01-25T11:01:27;98073.03;;;1.32;92.45
10135;BME280;5107;48.850;8.924;2023-01-25T11:03:55;98072.94;;;1.34;92.37
10135;BME280;5107;48.850;8.924;2023-01-25T11:06:32;98063.63;;;1.30;92.88
10135;BME280;5107;48.850;8.924;2023-01-25T11:09:35;98067.50;;;1.38;93.02
10135;BME280;5107;48.850;8.924;2023-01-25T11:12:14;98058.91;;;1.38;93.20
10135;BME280;5107;48.850;8.924;2023-01-25T11:14:43;98058.41;;;1.47;93.33
10135;BME280;5107;48.850;8.924;2023-01-25T11:17:23;98056.22;;;1.39;92.45
10135;BME280;5107;48.850;8.924;2023-01-25T11:20:16;98056.63;;;1.32;92.39
10135;BME280;5107;48.850;8.924;2023-01-25T11:22:52;98045.50;;;1.30;92.73
10135;BME280;5107;48.850;8.924;2023-01-25T11:25:30;98052.44;;;1.29;92.31
10135;BME280;5107;48.850;8.924;2023-01-25T11:28:18;98055.41;;;1.22;92.39
10135;BME280;5107;48.850;8.924;2023-01-25T11:30:46;98043.22;;;1.24;92.39
10135;BME280;5107;48.850;8.924;2023-01-25T11:33:17;98041.38;;;1.26;91.98
10135;BME280;5107;48.850;8.924;2023-01-25T11:36:08;98042.31;;;1.25;92.37
10135;BME280;5107;48.850;8.924;2023-01-25T11:38:53;98034.34;;;1.28;91.94
10135;BME280;5107;48.850;8.924;2023-01-25T11:41:33;98030.50;;;1.19;91.65
10135;BME280;5107;48.850;8.924;2023-01-25T11:44:30;98026.09;;;1.04;91.92
10135;BME280;5107;48.850;8.924;2023-01-25T11:47:12;98019.16;;;1.04;92.40
10135;BME280;5107;48.850;8.924;2023-01-25T11:49:55;98020.69;;;1.08;92.43
10135;BME280;5107;48.850;8.924;2023-01-25T11:52:35;98011.47;;;1.03;92.15
10135;BME280;5107;48.850;8.924;2023-01-25T11:55:20;98011.53;;;1.01;92.58
10135;BME280;5107;48.850;8.924;2023-01-25T11:58:21;97999.34;;;1.03;92.28
10135;BME280;5107;48.850;8.924;2023-01-25T12:01:05;97988.16;;;1.03;92.43
10135;BME280;5107;48.850;8.924;2023-01-25T12:07:03;97986.75;;;1.13;92.52
10135;BME280;5107;48.850;8.924;2023-01-25T12:09:58;97968.78;;;1.26;92.55
10135;BME280;5107;48.850;8.924;2023-01-25T12:12:38;97973.97;;;1.26;92.54
10135;BME280;5107;48.850;8.924;2023-01-25T12:15:42;97961.03;;;1.26;91.64
10135;BME280;5107;48.850;8.924;2023-01-25T12:18:54;97946.22;;;1.28;91.20
10135;BME280;5107;48.850;8.924;2023-01-25T12:21:42;97948.41;;;1.20;91.24
10135;BME280;5107;48.850;8.924;2023-01-25T12:24:31;97937.44;;;1.14;91.08
10135;BME280;5107;48.850;8.924;2023-01-25T12:27:13;97935.38;;;1.21;91.55
10135;BME280;5107;48.850;8.924;2023-01-25T12:29:51;97924.31;;;1.18;91.23
10135;BME280;5107;48.850;8.924;2023-01-25T12:32:27;97926.31;;;1.12;90.60
10135;BME280;5107;48.850;8.924;2023-01-25T12:35:20;97923.16;;;1.07;90.68
10135;BME280;5107;48.850;8.924;2023-01-25T12:37:50;97918.69;;;1.09;91.41
10135;BME280;5107;48.850;8.924;2023-01-25T12:40:36;97914.28;;;1.11;91.50
10135;BME280;5107;48.850;8.924;2023-01-25T12:43:13;97908.25;;;1.11;91.07
10135;BME280;5107;48.850;8.924;2023-01-25T12:45:44;97904.41;;;1.02;91.18
10135;BME280;5107;48.850;8.924;2023-01-25T12:48:18;97896.88;;;0.98;91.04
10135;BME280;5107;48.850;8.924;2023-01-25T12:50:53;97896.53;;;0.88;91.32
10135;BME280;5107;48.850;8.924;2023-01-25T12:53:26;97900.72;;;0.91;91.97
10135;BME280;5107;48.850;8.924;2023-01-25T12:55:54;97889.13;;;0.98;92.30
10135;BME280;5107;48.850;8.924;2023-01-25T12:58:31;97889.03;;;0.99;91.46
10135;BME280;5107;48.850;8.924;2023-01-25T13:01:07;97877.22;;;0.94;91.71
10135;BME280;5107;48.850;8.924;2023-01-25T13:03:55;97877.00;;;0.98;91.43
10135;BME280;5107;48.850;8.924;2023-01-25T13:06:33;97870.00;;;1.00;91.24
10135;BME280;5107;48.850;8.924;2023-01-25T13:09:11;97867.56;;;0.97;91.17
10135;BME280;5107;48.850;8.924;2023-01-25T13:11:41;97868.81;;;0.90;91.59
10135;BME280;5107;48.850;8.924;2023-01-25T13:14:29;97856.75;;;0.89;91.87
10135;BME280;5107;48.850;8.924;2023-01-25T13:17:21;97857.03;;;1.00;92.24
10135;BME280;5107;48.850;8.924;2023-01-25T13:19:51;97853.25;;;0.90;92.03
10135;BME280;5107;48.850;8.924;2023-01-25T13:22:54;97854.69;;;0.96;92.32
10135;BME280;5107;48.850;8.924;2023-01-25T13:25:24;97842.41;;;0.99;92.13
10135;BME280;5107;48.850;8.924;2023-01-25T13:28:41;97845.84;;;1.00;92.33
10135;BME280;5107;48.850;8.924;2023-01-25T13:31:43;97836.47;;;0.82;92.25
10135;BME280;5107;48.850;8.924;2023-01-25T13:34:11;97834.63;;;0.84;93.03
10135;BME280;5107;48.850;8.924;2023-01-25T13:36:45;97836.88;;;1.05;94.11
10135;BME280;5107;48.850;8.924;2023-01-25T13:39:41;97839.97;;;1.12;92.46
10135;BME280;5107;48.850;8.924;2023-01-25T13:42:20;97838.06;;;1.16;91.99
10135;BME280;5107;48.850;8.924;2023-01-25T13:44:50;97833.81;;;1.14;91.67
10135;BME280;5107;48.850;8.924;2023-01-25T13:47:22;97828.84;;;1.10;91.53
10135;BME280;5107;48.850;8.924;2023-01-25T13:49:56;97822.59;;;1.14;91.55
10135;BME280;5107;48.850;8.924;2023-01-25T13:52:28;97817.34;;;1.16;90.93